Terminal Aerodrome Forecast
Issued by NWS

Home | Current Version | Previous Version | Text Only | Print | Product List | Glossary On
Versions: 1 2 3 4 5 6 7 8 9 10 11 12 13 14 15 16 17 18 19 20 21
552
FTUS43 KOAX 211201 CCB
TAFSNY
TAF COR
KSNY 211201Z 2112/2212 10006KT 1SM -SN BR OVC003
     FM211400 08008KT 4SM -RASN BR OVC004
     FM211800 09005KT P6SM OVC010
     FM212200 14008KT P6SM SCT015 BKN040=

USA.gov is the U.S. government's official web portal to all federal, state and local government web resources and services.